createdAt,value
2022-12-09T00:01:21.686Z,1.95
2022-12-09T00:03:49.867Z,2.22
2022-12-09T00:06:20.941Z,7.40
2022-12-09T00:08:49.141Z,4.88
2022-12-09T00:11:17.667Z,4.18
2022-12-09T00:13:45.862Z,2.38
2022-12-09T00:16:14.847Z,4.05
2022-12-09T00:18:43.802Z,3.78
2022-12-09T00:21:27.746Z,4.60
2022-12-09T00:23:59.744Z,7.10
2022-12-09T00:26:28.055Z,4.28
2022-12-09T00:28:56.748Z,4.00
2022-12-09T00:31:28.268Z,4.18
2022-12-09T00:34:01.387Z,3.30
2022-12-09T00:36:30.082Z,4.18
2022-12-09T00:38:59.225Z,2.13
2022-12-09T00:41:27.415Z,3.95
2022-12-09T00:43:55.403Z,4.60
2022-12-09T00:46:23.406Z,3.60
2022-12-09T00:48:51.387Z,46.10
2022-12-09T00:51:20.407Z,2.35
2022-12-09T00:53:48.329Z,2.95
2022-12-09T00:56:16.408Z,3.33
2022-12-09T00:58:44.180Z,2.90
2022-12-09T01:01:12.719Z,2.53
2022-12-09T01:03:41.669Z,3.20
2022-12-09T01:06:10.899Z,4.20
2022-12-09T01:08:39.549Z,2.80
2022-12-09T01:11:18.000Z,2.83
2022-12-09T01:13:46.115Z,4.07
2022-12-09T01:16:18.970Z,8.32
2022-12-09T01:18:47.431Z,3.17
2022-12-09T01:21:15.238Z,3.88
2022-12-09T01:23:43.156Z,3.85
2022-12-09T01:26:11.483Z,41.72
2022-12-09T01:28:40.277Z,5.03
2022-12-09T01:31:17.970Z,4.95
2022-12-09T01:33:46.383Z,28.65
2022-12-09T01:36:21.713Z,5.22
2022-12-09T01:38:49.523Z,3.25
2022-12-09T01:41:17.979Z,3.78
2022-12-09T01:43:46.084Z,3.67
2022-12-09T01:46:16.890Z,3.30
2022-12-09T01:48:47.338Z,2.75
2022-12-09T01:51:21.021Z,2.67
2022-12-09T01:53:51.368Z,5.43
2022-12-09T01:59:01.403Z,2.85
2022-12-09T02:01:29.517Z,3.85
2022-12-09T02:03:57.682Z,5.13
2022-12-09T02:06:25.793Z,2.42
2022-12-09T02:08:54.099Z,2.45
2022-12-09T02:11:27.168Z,3.35
2022-12-09T02:14:00.936Z,1.75
2022-12-09T02:16:32.710Z,4.55
2022-12-09T02:19:03.775Z,5.13
2022-12-09T02:21:43.544Z,5.97
2022-12-09T02:24:19.713Z,4.53
2022-12-09T02:29:54.667Z,5.07
2022-12-09T02:32:40.087Z,5.57
2022-12-09T02:35:13.033Z,3.50
2022-12-09T02:38:16.850Z,4.38
2022-12-09T02:40:54.311Z,3.88
2022-12-09T02:43:28.445Z,3.00
2022-12-09T02:45:56.695Z,5.15
2022-12-09T02:48:30.140Z,4.70
2022-12-09T02:50:58.774Z,3.53
2022-12-09T02:53:27.765Z,4.65
2022-12-09T02:55:57.125Z,3.40
2022-12-09T02:58:25.272Z,2.72
2022-12-09T03:00:57.294Z,4.63
2022-12-09T03:03:26.357Z,2.45
2022-12-09T03:06:01.482Z,5.15
2022-12-09T03:09:01.753Z,2.88
2022-12-09T03:11:30.404Z,8.98
2022-12-09T03:14:11.914Z,5.57
2022-12-09T03:16:45.546Z,3.70
2022-12-09T03:19:34.563Z,5.10
2022-12-09T03:24:41.797Z,1.77
2022-12-09T03:27:12.877Z,7.90
2022-12-09T03:29:42.772Z,6.45
2022-12-09T03:32:12.641Z,2.80
2022-12-09T03:34:43.203Z,3.95
2022-12-09T03:37:12.800Z,3.25
2022-12-09T03:39:41.195Z,2.45
2022-12-09T03:42:12.549Z,4.20
2022-12-09T03:44:50.001Z,5.85
2022-12-09T03:47:17.946Z,6.57
2022-12-09T03:49:45.977Z,2.30
2022-12-09T03:52:18.352Z,3.50
2022-12-09T03:54:58.986Z,2.92
2022-12-09T03:57:29.260Z,2.92
2022-12-09T04:02:27.697Z,2.65
2022-12-09T04:04:56.212Z,3.13
2022-12-09T04:07:24.353Z,4.00
2022-12-09T04:09:52.389Z,3.70
2022-12-09T04:12:23.058Z,6.32
2022-12-09T04:14:51.252Z,7.80
2022-12-09T04:17:19.144Z,10.80
2022-12-09T04:19:48.045Z,9.65
2022-12-09T04:22:16.996Z,11.02
2022-12-09T04:24:45.419Z,9.05
2022-12-09T04:27:13.451Z,5.47
2022-12-09T04:29:44.753Z,6.28
2022-12-09T04:32:12.765Z,6.15
2022-12-09T04:34:40.819Z,7.50
2022-12-09T04:37:09.513Z,9.85
2022-12-09T04:39:37.449Z,7.05
2022-12-09T04:42:05.663Z,15.77
2022-12-09T04:44:34.028Z,7.32
2022-12-09T04:47:02.165Z,9.07
2022-12-09T04:49:31.083Z,4.93
2022-12-09T04:52:01.412Z,12.00
2022-12-09T04:54:29.525Z,5.35
2022-12-09T04:56:57.798Z,5.43
2022-12-09T04:59:25.705Z,4.88
2022-12-09T05:01:54.137Z,5.28
2022-12-09T05:04:22.452Z,12.25
2022-12-09T05:06:52.735Z,8.57
2022-12-09T05:11:49.121Z,5.65
2022-12-09T05:14:17.095Z,9.77
2022-12-09T05:16:45.402Z,24.10
2022-12-09T05:19:13.698Z,28.15
2022-12-09T05:21:44.133Z,21.35
2022-12-09T05:24:12.543Z,5.72
2022-12-09T05:26:41.144Z,9.30
2022-12-09T05:29:09.309Z,7.97
2022-12-09T05:31:40.424Z,6.40
2022-12-09T05:34:08.641Z,6.18
2022-12-09T05:36:40.428Z,4.63
2022-12-09T05:39:08.392Z,8.10
2022-12-09T05:41:36.679Z,6.55
2022-12-09T05:44:04.628Z,21.15
2022-12-09T05:46:32.899Z,6.90
2022-12-09T05:49:01.286Z,17.85
2022-12-09T05:51:30.600Z,9.63
2022-12-09T05:54:01.342Z,9.95
2022-12-09T05:56:30.191Z,13.40
2022-12-09T05:58:58.414Z,13.95
2022-12-09T06:01:27.196Z,13.70
2022-12-09T06:03:55.798Z,9.38
2022-12-09T06:06:27.051Z,12.43
2022-12-09T06:09:00.935Z,9.75
2022-12-09T06:11:29.520Z,8.43
2022-12-09T06:14:00.383Z,21.27
2022-12-09T06:16:28.969Z,21.73
2022-12-09T06:18:57.074Z,20.77
2022-12-09T06:21:25.245Z,23.95
2022-12-09T06:23:53.672Z,12.68
2022-12-09T06:26:25.186Z,12.13
2022-12-09T06:28:53.661Z,28.35
2022-12-09T06:31:23.317Z,8.80
2022-12-09T06:33:56.448Z,14.13
2022-12-09T06:36:26.298Z,7.55
2022-12-09T06:38:54.727Z,7.20
2022-12-09T06:41:23.207Z,10.68
2022-12-09T06:43:51.463Z,8.75
2022-12-09T06:46:23.720Z,10.23
2022-12-09T06:48:52.891Z,10.95
2022-12-09T06:51:20.953Z,11.77
2022-12-09T06:53:49.424Z,15.60
2022-12-09T06:56:17.778Z,21.88
2022-12-09T06:58:47.400Z,11.40
2022-12-09T07:01:17.285Z,11.95
2022-12-09T07:03:46.744Z,15.40
2022-12-09T07:06:31.995Z,24.50
2022-12-09T07:09:01.943Z,28.23
2022-12-09T07:11:30.911Z,20.98
2022-12-09T07:13:58.957Z,12.63
2022-12-09T07:16:27.638Z,39.38
2022-12-09T07:18:56.391Z,48.05
2022-12-09T07:21:25.059Z,38.67
2022-12-09T07:23:53.324Z,45.58
2022-12-09T07:26:21.652Z,39.17
2022-12-09T07:28:50.613Z,46.30
2022-12-09T07:31:27.464Z,23.52
2022-12-09T07:36:30.257Z,22.48
2022-12-09T07:39:12.200Z,15.30
2022-12-09T07:41:40.709Z,20.58
2022-12-09T07:44:08.780Z,16.98
2022-12-09T07:46:37.184Z,18.23
2022-12-09T07:49:06.374Z,18.98
2022-12-09T07:51:34.852Z,17.83
2022-12-09T07:54:03.340Z,30.35
2022-12-09T07:56:31.504Z,46.78
2022-12-09T07:59:00.166Z,75.35
2022-12-09T08:01:31.087Z,20.48
2022-12-09T08:03:59.580Z,27.00
2022-12-09T08:06:28.713Z,18.13
2022-12-09T08:09:00.920Z,20.15
2022-12-09T08:11:30.212Z,39.25
2022-12-09T08:13:59.519Z,15.65
2022-12-09T08:16:28.330Z,26.45
2022-12-09T08:18:57.142Z,30.92
2022-12-09T08:21:33.598Z,23.08
2022-12-09T08:26:33.265Z,36.85
2022-12-09T08:29:01.899Z,49.38
2022-12-09T08:31:31.474Z,29.40
2022-12-09T08:34:05.515Z,32.65
2022-12-09T08:36:33.781Z,25.23
2022-12-09T08:39:02.294Z,34.30
2022-12-09T08:41:39.415Z,27.08
2022-12-09T08:44:17.210Z,28.23
2022-12-09T08:46:47.761Z,26.08
2022-12-09T08:49:20.311Z,62.90
2022-12-09T08:51:49.515Z,90.28
2022-12-09T08:54:17.486Z,23.67
2022-12-09T08:56:46.805Z,41.55
2022-12-09T08:59:16.069Z,27.95
2022-12-09T09:01:44.710Z,42.08
2022-12-09T09:04:15.589Z,40.83
2022-12-09T09:06:45.271Z,22.35
2022-12-09T09:09:14.112Z,22.00
2022-12-09T09:11:43.184Z,27.88
2022-12-09T09:14:12.476Z,34.80
2022-12-09T09:16:41.210Z,28.20
2022-12-09T09:19:09.984Z,39.80
2022-12-09T09:21:38.533Z,26.75
2022-12-09T09:24:12.031Z,30.45
2022-12-09T09:26:42.561Z,24.23
2022-12-09T09:29:16.706Z,12.63
2022-12-09T09:31:48.789Z,16.92
2022-12-09T09:34:18.061Z,18.83
2022-12-09T09:36:49.186Z,28.13
2022-12-09T09:39:19.350Z,27.60
2022-12-09T09:41:55.601Z,14.55
2022-12-09T09:44:46.288Z,25.88
2022-12-09T09:47:20.151Z,33.47
2022-12-09T09:49:55.427Z,40.03
2022-12-09T09:52:24.823Z,29.65
2022-12-09T09:54:53.348Z,33.03
2022-12-09T09:57:44.583Z,29.17
2022-12-09T10:00:30.216Z,31.48
2022-12-09T10:02:59.566Z,27.45
2022-12-09T10:05:43.546Z,33.17
2022-12-09T10:08:30.317Z,27.05
2022-12-09T10:11:14.069Z,15.77
2022-12-09T10:13:51.057Z,27.10
2022-12-09T10:16:50.394Z,79.25
2022-12-09T10:19:39.336Z,36.30
2022-12-09T10:24:54.430Z,40.60
2022-12-09T10:27:39.804Z,30.23
2022-12-09T10:30:10.089Z,29.92
2022-12-09T10:32:39.262Z,42.72
2022-12-09T10:35:14.545Z,34.47
2022-12-09T10:37:42.986Z,17.45
2022-12-09T10:40:11.283Z,36.40
2022-12-09T10:43:08.071Z,26.98
2022-12-09T10:46:19.705Z,20.55
2022-12-09T10:48:49.725Z,20.17
2022-12-09T10:51:20.664Z,31.80
2022-12-09T10:54:20.953Z,54.05
2022-12-09T10:59:35.336Z,22.70
2022-12-09T11:02:10.158Z,21.98
2022-12-09T11:04:44.190Z,21.10
2022-12-09T11:07:18.432Z,35.55
2022-12-09T11:09:56.755Z,18.25
2022-12-09T11:12:31.980Z,20.77
2022-12-09T11:15:07.605Z,24.25
2022-12-09T11:17:40.131Z,37.20
2022-12-09T11:20:09.648Z,23.92
2022-12-09T11:22:41.285Z,29.92
2022-12-09T11:25:18.618Z,34.47
2022-12-09T11:27:50.172Z,19.90
2022-12-09T11:30:18.761Z,20.15
2022-12-09T11:33:28.929Z,33.30
2022-12-09T11:36:04.665Z,32.28
2022-12-09T11:38:38.428Z,41.17
2022-12-09T11:41:43.976Z,39.25
2022-12-09T11:44:31.807Z,52.42
2022-12-09T11:47:06.207Z,62.25
2022-12-09T11:49:59.091Z,43.03
2022-12-09T11:52:32.683Z,52.67
2022-12-09T11:55:12.977Z,28.05
2022-12-09T11:57:55.423Z,20.75
2022-12-09T12:00:25.491Z,25.08
2022-12-09T12:02:56.366Z,36.85
2022-12-09T12:05:44.070Z,26.10
2022-12-09T12:08:18.124Z,33.10
2022-12-09T12:10:58.427Z,32.67
2022-12-09T12:13:26.041Z,41.42
2022-12-09T12:16:01.599Z,25.05
2022-12-09T12:18:30.726Z,46.15
2022-12-09T12:21:01.521Z,25.08
2022-12-09T12:23:51.370Z,24.05
2022-12-09T12:26:57.921Z,44.35
2022-12-09T12:29:44.315Z,33.63
2022-12-09T12:32:15.766Z,25.27
2022-12-09T12:35:22.181Z,37.15
2022-12-09T12:37:50.293Z,32.65
2022-12-09T12:40:54.297Z,26.75
2022-12-09T12:43:49.963Z,30.50
2022-12-09T12:46:36.063Z,40.20
2022-12-09T12:49:04.235Z,42.17
2022-12-09T12:51:38.147Z,43.17
2022-12-09T12:54:05.824Z,36.17
2022-12-09T12:56:47.017Z,44.03
2022-12-09T12:59:42.788Z,32.20
2022-12-09T13:02:27.355Z,32.88
2022-12-09T13:05:13.279Z,28.88
2022-12-09T13:08:18.839Z,43.10
2022-12-09T13:10:53.433Z,26.23
2022-12-09T13:13:35.323Z,26.80
2022-12-09T13:16:17.455Z,23.63
2022-12-09T13:18:45.496Z,36.08
2022-12-09T13:21:13.675Z,21.52
2022-12-09T13:23:48.145Z,23.08
2022-12-09T13:26:23.533Z,21.80
2022-12-09T13:29:11.135Z,17.92
2022-12-09T13:31:45.866Z,35.45
2022-12-09T13:34:24.649Z,31.55
2022-12-09T13:36:52.423Z,29.08
2022-12-09T13:39:42.055Z,48.10
2022-12-09T13:42:46.542Z,12.73
2022-12-09T13:45:28.524Z,13.55
2022-12-09T13:47:57.323Z,50.10
2022-12-09T13:50:32.329Z,39.00
2022-12-09T13:53:04.842Z,35.00
2022-12-09T13:55:34.895Z,21.50
2022-12-09T13:58:05.527Z,45.50
2022-12-09T14:00:36.865Z,36.40
2022-12-09T14:03:19.974Z,22.90
2022-12-09T14:05:49.085Z,32.45
2022-12-09T14:08:21.175Z,21.45
2022-12-09T14:10:52.248Z,27.80
2022-12-09T14:13:40.589Z,45.10
2022-12-09T14:16:17.332Z,15.55
2022-12-09T14:18:45.119Z,15.63
2022-12-09T14:21:18.569Z,28.52
2022-12-09T14:24:09.032Z,11.80
2022-12-09T14:26:59.812Z,28.95
2022-12-09T14:29:46.682Z,23.70
2022-12-09T14:32:23.978Z,22.73
2022-12-09T14:35:11.603Z,13.77
2022-12-09T14:38:16.568Z,25.08
2022-12-09T14:40:44.171Z,35.28
2022-12-09T14:44:07.199Z,26.88
2022-12-09T14:46:40.513Z,33.90
2022-12-09T14:49:28.436Z,22.75
2022-12-09T14:52:01.607Z,25.75
2022-12-09T14:54:40.189Z,29.95
2022-12-09T14:57:26.482Z,30.40
2022-12-09T14:59:56.907Z,23.48
2022-12-09T15:02:25.735Z,15.18
2022-12-09T15:04:54.868Z,22.90
2022-12-09T15:07:35.744Z,11.93
2022-12-09T15:10:05.439Z,30.48
2022-12-09T15:15:05.027Z,26.90
2022-12-09T15:18:17.100Z,20.15
2022-12-09T15:20:52.417Z,25.23
2022-12-09T15:23:22.920Z,23.17
2022-12-09T15:25:57.802Z,26.02
2022-12-09T15:28:28.119Z,21.40
2022-12-09T15:31:07.705Z,12.93
2022-12-09T15:33:42.774Z,11.07
2022-12-09T15:36:20.798Z,28.80
2022-12-09T15:39:02.103Z,39.15
2022-12-09T15:42:00.529Z,52.92
2022-12-09T15:44:44.399Z,16.08
2022-12-09T15:47:43.750Z,9.32
2022-12-09T15:50:18.595Z,6.35
2022-12-09T15:52:55.306Z,12.40
2022-12-09T15:55:33.039Z,19.00
2022-12-09T15:58:01.958Z,9.30
2022-12-09T16:00:29.546Z,10.43
2022-12-09T16:02:57.428Z,5.85
2022-12-09T16:05:25.961Z,10.25
2022-12-09T16:08:02.905Z,18.63
2022-12-09T16:10:30.723Z,9.05
2022-12-09T16:13:13.171Z,6.80
2022-12-09T16:15:53.946Z,5.68
2022-12-09T16:18:26.027Z,13.13
2022-12-09T16:21:10.161Z,10.00
2022-12-09T16:23:38.774Z,15.43
2022-12-09T16:26:07.518Z,18.23
2022-12-09T16:28:35.910Z,20.90
2022-12-09T16:31:04.970Z,12.27
2022-12-09T16:33:39.469Z,14.18
2022-12-09T16:36:10.081Z,11.75
2022-12-09T16:38:38.479Z,12.13
2022-12-09T16:41:07.291Z,12.25
2022-12-09T16:43:34.978Z,10.77
2022-12-09T16:46:28.322Z,10.00
2022-12-09T16:48:59.258Z,12.70
2022-12-09T16:51:30.940Z,10.13
2022-12-09T16:53:58.933Z,10.63
2022-12-09T16:56:31.797Z,21.38
2022-12-09T16:58:59.856Z,6.50
2022-12-09T17:01:29.233Z,8.48
2022-12-09T17:04:14.547Z,10.75
2022-12-09T17:06:42.331Z,10.77
2022-12-09T17:09:12.054Z,8.85
2022-12-09T17:11:42.879Z,9.55
2022-12-09T17:14:14.761Z,11.70
2022-12-09T17:16:42.548Z,14.77
2022-12-09T17:19:10.157Z,9.80
2022-12-09T17:21:37.778Z,7.55
2022-12-09T17:24:05.578Z,10.65
2022-12-09T17:26:33.819Z,10.38
2022-12-09T17:29:02.248Z,6.13
2022-12-09T17:31:30.445Z,7.53
2022-12-09T17:33:58.393Z,8.75
2022-12-09T17:36:26.118Z,6.10
2022-12-09T17:38:53.991Z,14.10
2022-12-09T17:41:23.782Z,7.18
2022-12-09T17:43:52.207Z,7.38
2022-12-09T17:46:20.302Z,8.93
2022-12-09T17:48:48.249Z,8.43
2022-12-09T17:51:18.094Z,9.40
2022-12-09T17:53:46.485Z,8.50
2022-12-09T17:56:16.516Z,7.20
2022-12-09T17:58:44.310Z,8.27
2022-12-09T18:01:20.966Z,8.07
2022-12-09T18:03:57.252Z,9.68
2022-12-09T18:06:27.856Z,7.70
2022-12-09T18:08:55.605Z,9.40
2022-12-09T18:11:25.692Z,6.05
2022-12-09T18:13:54.553Z,11.43
2022-12-09T18:16:22.464Z,7.00
2022-12-09T18:18:50.153Z,11.15
2022-12-09T18:21:19.884Z,6.25
2022-12-09T18:23:48.590Z,11.07
2022-12-09T18:26:19.186Z,7.43
2022-12-09T18:28:47.319Z,9.32
2022-12-09T18:31:21.916Z,11.93
2022-12-09T18:33:49.930Z,5.88
2022-12-09T18:36:19.024Z,7.72
2022-12-09T18:38:46.939Z,11.15
2022-12-09T18:41:19.825Z,7.50
2022-12-09T18:43:48.408Z,5.95
2022-12-09T18:46:31.800Z,7.88
2022-12-09T18:49:01.789Z,8.13
2022-12-09T18:51:29.940Z,5.53
2022-12-09T18:53:58.889Z,6.18
2022-12-09T18:56:27.133Z,6.80
2022-12-09T18:59:06.494Z,3.70
2022-12-09T19:01:39.738Z,8.55
2022-12-09T19:04:13.554Z,6.65
2022-12-09T19:06:43.041Z,9.20
2022-12-09T19:09:12.104Z,4.78
2022-12-09T19:11:40.372Z,5.50
2022-12-09T19:14:08.708Z,5.05
2022-12-09T19:16:36.526Z,6.70
2022-12-09T19:19:09.525Z,5.90
2022-12-09T19:21:38.287Z,5.63
2022-12-09T19:24:07.326Z,4.53
2022-12-09T19:26:36.537Z,8.40
2022-12-09T19:29:09.238Z,5.70
2022-12-09T19:31:39.089Z,6.55
2022-12-09T19:34:14.370Z,5.63
2022-12-09T19:36:42.674Z,9.07
2022-12-09T19:39:11.194Z,6.47
2022-12-09T19:41:40.488Z,5.32
2022-12-09T19:44:08.932Z,6.85
2022-12-09T19:46:38.594Z,9.40
2022-12-09T19:49:06.844Z,7.22
2022-12-09T19:51:34.498Z,6.03
2022-12-09T19:54:02.663Z,6.28
2022-12-09T19:56:30.759Z,4.90
2022-12-09T19:58:58.698Z,3.83
2022-12-09T20:01:32.558Z,6.32
2022-12-09T20:04:25.516Z,5.43
2022-12-09T20:06:54.166Z,4.90
2022-12-09T20:09:24.562Z,4.80
2022-12-09T20:11:55.853Z,5.18
2022-12-09T20:14:23.964Z,3.63
2022-12-09T20:16:51.814Z,3.60
2022-12-09T20:19:19.905Z,4.20
2022-12-09T20:21:47.716Z,3.55
2022-12-09T20:24:16.557Z,5.15
2022-12-09T20:26:44.960Z,5.35
2022-12-09T20:29:12.784Z,8.75
2022-12-09T20:31:41.031Z,4.43
2022-12-09T20:34:14.288Z,3.50
2022-12-09T20:36:43.799Z,6.13
2022-12-09T20:39:19.790Z,4.68
2022-12-09T20:41:47.906Z,1.75
2022-12-09T20:44:16.307Z,4.78
2022-12-09T20:46:51.930Z,5.10
2022-12-09T20:49:25.491Z,4.95
2022-12-09T20:51:53.569Z,4.15
2022-12-09T20:54:21.277Z,5.85
2022-12-09T20:56:49.213Z,5.30
2022-12-09T20:59:17.138Z,3.70
2022-12-09T21:01:47.312Z,3.38
2022-12-09T21:06:43.160Z,7.05
2022-12-09T21:09:14.988Z,3.15
2022-12-09T21:11:42.925Z,6.60
2022-12-09T21:14:11.924Z,3.33
2022-12-09T21:16:42.581Z,6.30
2022-12-09T21:19:13.416Z,3.55
2022-12-09T21:21:42.008Z,5.47
2022-12-09T21:24:14.413Z,4.65
2022-12-09T21:26:42.407Z,7.25
2022-12-09T21:29:11.237Z,4.20
2022-12-09T21:31:41.018Z,3.58
2022-12-09T21:34:09.601Z,2.83
2022-12-09T21:36:38.917Z,4.90
2022-12-09T21:39:07.033Z,3.38
2022-12-09T21:41:36.849Z,9.15
2022-12-09T21:44:05.538Z,5.47
2022-12-09T21:46:36.033Z,3.67
2022-12-09T21:49:05.809Z,4.97
2022-12-09T21:51:34.201Z,4.82
2022-12-09T21:54:02.521Z,5.13
2022-12-09T21:56:31.150Z,6.07
2022-12-09T21:59:00.061Z,5.72
2022-12-09T22:01:29.390Z,4.28
2022-12-09T22:03:57.790Z,2.63
2022-12-09T22:06:25.627Z,4.28
2022-12-09T22:08:53.611Z,4.40
2022-12-09T22:11:22.771Z,5.10
2022-12-09T22:13:50.489Z,4.13
2022-12-09T22:16:22.997Z,5.03
2022-12-09T22:18:51.353Z,7.78
2022-12-09T22:21:25.508Z,3.67
2022-12-09T22:23:58.350Z,5.20
2022-12-09T22:26:26.694Z,3.13
2022-12-09T22:28:54.657Z,4.60
2022-12-09T22:31:24.941Z,3.28
2022-12-09T22:36:21.300Z,4.63
2022-12-09T22:38:49.446Z,4.25
2022-12-09T22:41:18.785Z,3.92
2022-12-09T22:43:46.643Z,4.50
2022-12-09T22:46:15.591Z,3.40
2022-12-09T22:48:43.528Z,8.82
2022-12-09T22:51:15.868Z,3.58
2022-12-09T22:53:44.055Z,3.97
2022-12-09T22:56:12.407Z,2.35
2022-12-09T22:58:40.337Z,3.95
2022-12-09T23:01:12.394Z,3.30
